createdAt,value
2019-06-08T00:01:51.059Z,70.98
2019-06-08T00:04:55.478Z,70.62
2019-06-08T00:08:00.235Z,69.75
2019-06-08T00:11:04.855Z,69.73
2019-06-08T00:14:09.595Z,69.65
2019-06-08T00:17:27.322Z,67.06
2019-06-08T00:20:21.781Z,67.18
2019-06-08T00:23:26.293Z,66.58
2019-06-08T00:26:30.733Z,69.30
2019-06-08T00:29:35.221Z,69.15
2019-06-08T00:32:39.711Z,72.41
2019-06-08T00:35:44.154Z,72.57
2019-06-08T00:38:48.629Z,71.87
2019-06-08T00:41:53.081Z,71.88
2019-06-08T00:44:57.547Z,72.91
2019-06-08T00:48:02.001Z,72.93
2019-06-08T00:51:06.810Z,72.17
2019-06-08T00:54:11.234Z,72.14
2019-06-08T00:57:15.699Z,72.14
2019-06-08T01:00:20.452Z,72.20
2019-06-08T01:03:25.860Z,72.43
2019-06-08T01:06:30.329Z,73.37
2019-06-08T01:09:34.791Z,72.21
2019-06-08T01:12:39.474Z,67.58
2019-06-08T01:15:43.911Z,67.39
2019-06-08T01:18:48.385Z,67.66
2019-06-08T01:21:52.839Z,67.17
2019-06-08T01:24:57.578Z,69.57
2019-06-08T01:28:02.024Z,66.97
2019-06-08T01:31:06.732Z,66.29
2019-06-08T01:34:11.181Z,65.92
2019-06-08T01:37:15.626Z,69.13
2019-06-08T01:40:21.295Z,66.52
2019-06-08T01:43:26.011Z,66.58
2019-06-08T01:46:30.455Z,67.59
2019-06-08T01:49:34.908Z,66.83
2019-06-08T01:52:39.370Z,67.24
2019-06-08T01:55:44.199Z,69.03
2019-06-08T01:58:48.648Z,69.23
2019-06-08T02:01:53.089Z,71.44
2019-06-08T02:04:57.868Z,71.79
2019-06-08T02:08:02.310Z,72.50
2019-06-08T02:11:07.220Z,73.15
2019-06-08T02:14:11.669Z,72.17
2019-06-08T02:17:16.108Z,72.43
2019-06-08T02:20:21.000Z,73.44
2019-06-08T02:23:26.741Z,73.41
2019-06-08T02:26:32.171Z,73.27
2019-06-08T02:29:38.159Z,73.15
2019-06-08T02:32:42.602Z,73.67
2019-06-08T02:35:47.308Z,74.77
2019-06-08T02:38:51.745Z,74.41
2019-06-08T02:41:56.203Z,74.40
2019-06-08T02:45:00.664Z,71.91
2019-06-08T02:48:05.653Z,72.83
2019-06-08T02:51:10.279Z,73.41
2019-06-08T02:54:14.979Z,74.22
2019-06-08T02:57:22.066Z,70.83
2019-06-08T03:00:26.519Z,70.56
2019-06-08T03:03:33.836Z,69.09
2019-06-08T03:06:41.513Z,69.74
2019-06-08T03:09:48.418Z,70.47
2019-06-08T03:12:56.220Z,70.99
2019-06-08T03:16:00.680Z,71.42
2019-06-08T03:19:20.968Z,71.29
2019-06-08T03:22:11.455Z,71.41
2019-06-08T03:25:15.907Z,70.08
2019-06-08T03:28:20.346Z,69.43
2019-06-08T03:31:24.834Z,68.32
2019-06-08T03:34:29.263Z,68.01
2019-06-08T03:37:35.623Z,67.24
2019-06-08T03:40:40.632Z,66.82
2019-06-08T03:43:46.071Z,68.11
2019-06-08T03:46:50.521Z,66.87
2019-06-08T03:49:57.657Z,66.05
2019-06-08T03:53:01.146Z,65.98
2019-06-08T03:56:05.981Z,65.95
2019-06-08T03:59:10.427Z,66.13
2019-06-08T04:02:14.872Z,65.71
2019-06-08T04:05:19.331Z,66.56
2019-06-08T04:08:23.763Z,66.57
2019-06-08T04:11:28.213Z,66.83
2019-06-08T04:14:32.662Z,65.85
2019-06-08T04:17:37.953Z,65.08
2019-06-08T04:20:45.212Z,64.49
2019-06-08T04:23:50.459Z,64.73
2019-06-08T04:26:54.925Z,65.43
2019-06-08T04:29:59.371Z,65.15
2019-06-08T04:33:03.821Z,64.97
2019-06-08T04:36:08.613Z,65.00
2019-06-08T04:39:13.066Z,64.53
2019-06-08T04:42:17.499Z,64.44
2019-06-08T04:45:21.942Z,64.23
2019-06-08T04:48:26.708Z,62.99
2019-06-08T04:51:31.172Z,62.67
2019-06-08T04:54:35.604Z,62.27
2019-06-08T04:57:41.901Z,62.06
2019-06-08T05:00:48.231Z,62.03
2019-06-08T05:03:52.406Z,62.90
2019-06-08T05:06:56.857Z,62.60
2019-06-08T05:10:01.309Z,61.15
2019-06-08T05:13:06.028Z,60.53
2019-06-08T05:16:10.464Z,59.30
2019-06-08T05:19:15.246Z,59.29
2019-06-08T05:22:19.975Z,58.34
2019-06-08T05:25:24.703Z,57.09
2019-06-08T05:28:29.150Z,56.05
2019-06-08T05:31:33.611Z,55.57
2019-06-08T05:34:39.284Z,55.15
2019-06-08T05:37:43.797Z,54.49
2019-06-08T05:40:48.217Z,54.03
2019-06-08T05:43:52.700Z,53.35
2019-06-08T05:46:57.165Z,53.14
2019-06-08T05:50:01.629Z,52.95
2019-06-08T05:53:06.236Z,52.06
2019-06-08T05:56:10.677Z,52.66
2019-06-08T05:59:15.136Z,52.86
2019-06-08T06:02:19.587Z,52.84
2019-06-08T06:05:24.023Z,53.34
2019-06-08T06:08:28.783Z,53.95
2019-06-08T06:11:33.510Z,52.51
2019-06-08T06:14:37.985Z,53.19
2019-06-08T06:17:43.958Z,53.93
2019-06-08T06:20:49.391Z,55.21
2019-06-08T06:23:53.937Z,54.73
2019-06-08T06:26:58.461Z,54.12
2019-06-08T06:30:03.908Z,53.86
2019-06-08T06:33:08.359Z,53.01
2019-06-08T06:36:13.102Z,52.61
2019-06-08T06:39:17.557Z,51.86
2019-06-08T06:42:24.838Z,49.76
2019-06-08T06:45:28.189Z,49.32
2019-06-08T06:48:32.654Z,49.58
2019-06-08T06:51:37.098Z,48.20
2019-06-08T06:54:42.671Z,47.83
2019-06-08T06:57:47.553Z,46.50
2019-06-08T07:00:51.994Z,45.90
2019-06-08T07:03:56.516Z,46.30
2019-06-08T07:07:01.005Z,45.46
2019-06-08T07:10:08.866Z,44.30
2019-06-08T07:13:13.321Z,44.72
2019-06-08T07:16:19.300Z,44.80
2019-06-08T07:19:24.256Z,45.33
2019-06-08T07:22:28.698Z,43.73
2019-06-08T07:25:33.146Z,44.38
2019-06-08T07:28:37.601Z,41.83
2019-06-08T07:31:42.041Z,42.30
2019-06-08T07:34:47.841Z,42.38
2019-06-08T07:37:53.716Z,41.35
2019-06-08T07:40:59.941Z,41.97
2019-06-08T07:44:04.633Z,42.31
2019-06-08T07:47:09.394Z,40.35
2019-06-08T07:50:14.780Z,39.45
2019-06-08T07:53:19.220Z,37.36
2019-06-08T07:56:23.747Z,37.06
2019-06-08T07:59:28.207Z,36.41
2019-06-08T08:02:32.646Z,35.29
2019-06-08T08:05:37.113Z,35.48
2019-06-08T08:08:41.546Z,37.11
2019-06-08T08:11:46.306Z,36.23
2019-06-08T08:14:51.321Z,34.62
2019-06-08T08:17:55.779Z,34.82
2019-06-08T08:21:09.051Z,33.76
2019-06-08T08:24:07.310Z,34.49
2019-06-08T08:27:11.883Z,36.39
2019-06-08T08:30:17.327Z,34.16
2019-06-08T08:33:22.675Z,33.06
2019-06-08T08:36:29.430Z,33.11
2019-06-08T08:39:33.306Z,34.90
2019-06-08T08:42:38.744Z,34.12
2019-06-08T08:45:43.401Z,32.99
2019-06-08T08:48:48.611Z,32.78
2019-06-08T08:51:54.033Z,33.69
2019-06-08T08:55:00.459Z,31.46
2019-06-08T08:58:04.735Z,32.52
2019-06-08T09:01:09.196Z,28.51
2019-06-08T09:04:13.641Z,31.37
2019-06-08T09:07:18.469Z,31.56
2019-06-08T09:10:23.033Z,31.92
2019-06-08T09:13:28.252Z,31.30
2019-06-08T09:16:32.814Z,33.04
2019-06-08T09:19:38.231Z,31.21
2019-06-08T09:22:53.780Z,32.32
2019-06-08T09:25:49.166Z,32.59
2019-06-08T09:28:54.490Z,33.10
2019-06-08T09:32:01.564Z,30.86
2019-06-08T09:35:09.101Z,33.01
2019-06-08T09:38:12.516Z,30.28
2019-06-08T09:41:18.666Z,31.58
2019-06-08T09:44:23.264Z,31.25
2019-06-08T09:47:28.136Z,33.46
2019-06-08T09:50:32.622Z,30.83
2019-06-08T09:53:41.210Z,30.38
2019-06-08T09:56:43.547Z,30.01
2019-06-08T09:59:48.315Z,32.32
2019-06-08T10:02:54.743Z,28.65
2019-06-08T10:06:04.965Z,30.06
2019-06-08T10:09:08.979Z,29.48
2019-06-08T10:12:13.556Z,31.93
2019-06-08T10:15:18.365Z,31.14
2019-06-08T10:18:22.844Z,28.30
2019-06-08T10:21:28.419Z,27.99
2019-06-08T10:24:32.984Z,30.99
2019-06-08T10:27:38.616Z,27.04
2019-06-08T10:30:43.155Z,27.87
2019-06-08T10:33:48.206Z,27.49
2019-06-08T10:36:52.835Z,28.78
2019-06-08T10:40:00.656Z,28.86
2019-06-08T10:43:04.598Z,28.03
2019-06-08T10:46:16.349Z,27.73
2019-06-08T10:49:18.417Z,27.23
2019-06-08T10:52:22.006Z,32.15
2019-06-08T10:55:28.057Z,32.00
2019-06-08T10:58:32.716Z,28.16
2019-06-08T11:01:38.580Z,29.16
2019-06-08T11:04:43.571Z,26.41
2019-06-08T11:07:48.233Z,27.42
2019-06-08T11:10:52.634Z,27.41
2019-06-08T11:13:58.391Z,26.80
2019-06-08T11:17:04.898Z,24.70
2019-06-08T11:20:13.088Z,25.31
2019-06-08T11:23:18.737Z,24.73
2019-06-08T11:26:24.596Z,25.72
2019-06-08T11:29:30.686Z,24.02
2019-06-08T11:32:35.156Z,27.87
2019-06-08T11:35:39.601Z,28.23
2019-06-08T11:38:44.061Z,24.93
2019-06-08T11:41:48.563Z,24.76
2019-06-08T11:44:53.043Z,25.89
2019-06-08T11:47:58.437Z,25.14
2019-06-08T11:51:04.559Z,25.75
2019-06-08T11:54:27.372Z,24.88
2019-06-08T11:57:17.473Z,23.74
2019-06-08T12:00:53.235Z,26.22
2019-06-08T12:03:58.016Z,28.25
2019-06-08T12:07:04.060Z,22.31
2019-06-08T12:10:10.562Z,23.54
2019-06-08T12:13:17.514Z,24.18
2019-06-08T12:16:22.309Z,24.30
2019-06-08T12:19:28.442Z,24.89
2019-06-08T12:22:33.175Z,23.69
2019-06-08T12:25:37.889Z,24.58
2019-06-08T12:28:42.343Z,25.45
2019-06-08T12:31:47.044Z,24.51
2019-06-08T12:34:51.500Z,27.35
2019-06-08T12:37:58.128Z,25.62
2019-06-08T12:41:02.144Z,23.43
2019-06-08T12:44:09.714Z,26.13
2019-06-08T12:47:16.100Z,24.75
2019-06-08T12:50:20.069Z,24.97
2019-06-08T12:53:24.678Z,25.83
2019-06-08T12:56:29.190Z,26.10
2019-06-08T12:59:33.663Z,24.51
2019-06-08T13:02:38.521Z,29.43
2019-06-08T13:05:43.095Z,29.50
2019-06-08T13:08:47.854Z,31.14
2019-06-08T13:11:52.358Z,25.41
2019-06-08T13:14:58.259Z,24.80
2019-06-08T13:18:02.830Z,29.65
2019-06-08T13:21:20.329Z,29.33
2019-06-08T13:24:13.491Z,30.22
2019-06-08T13:27:21.517Z,30.20
2019-06-08T13:30:26.434Z,30.35
2019-06-08T13:33:30.616Z,27.56
2019-06-08T13:36:35.077Z,29.74
2019-06-08T13:39:39.527Z,29.38
2019-06-08T13:42:43.964Z,27.54
2019-06-08T13:45:51.289Z,29.11
2019-06-08T13:48:54.603Z,29.95
2019-06-08T13:51:59.059Z,30.40
2019-06-08T13:55:05.356Z,28.36
2019-06-08T13:58:09.793Z,30.66
2019-06-08T14:01:15.350Z,28.34
2019-06-08T14:04:21.057Z,28.06
2019-06-08T14:07:31.778Z,31.13
2019-06-08T14:10:41.177Z,30.34
2019-06-08T14:13:47.933Z,28.60
2019-06-08T14:16:52.075Z,29.81
2019-06-08T14:19:58.690Z,29.03
2019-06-08T14:23:02.716Z,28.40
2019-06-08T14:26:08.304Z,27.31
2019-06-08T14:29:12.882Z,29.56
2019-06-08T14:32:18.942Z,29.01
2019-06-08T14:35:25.344Z,29.27
2019-06-08T14:38:38.296Z,29.44
2019-06-08T14:41:36.806Z,28.83
2019-06-08T14:44:41.261Z,28.24
2019-06-08T14:47:47.579Z,28.28
2019-06-08T14:50:51.880Z,27.63
2019-06-08T14:53:58.266Z,27.22
2019-06-08T14:57:03.244Z,28.36
2019-06-08T15:00:11.898Z,29.79
2019-06-08T15:03:14.709Z,28.34
2019-06-08T15:06:19.403Z,29.31
2019-06-08T15:09:23.886Z,29.37
2019-06-08T15:12:31.076Z,27.81
2019-06-08T15:15:34.848Z,27.30
2019-06-08T15:18:39.290Z,27.94
2019-06-08T15:21:43.759Z,28.26
2019-06-08T15:24:48.205Z,28.52
2019-06-08T15:27:52.821Z,27.86
2019-06-08T15:30:59.790Z,28.71
2019-06-08T15:34:04.215Z,28.06
2019-06-08T15:37:09.432Z,28.63
2019-06-08T15:40:14.556Z,29.16
2019-06-08T15:43:19.004Z,28.72
2019-06-08T15:46:24.109Z,28.49
2019-06-08T15:49:30.606Z,28.50
2019-06-08T15:52:35.661Z,27.91
2019-06-08T15:55:41.461Z,27.93
2019-06-08T15:58:48.529Z,27.71
2019-06-08T16:01:52.355Z,27.88
2019-06-08T16:04:56.808Z,27.37
2019-06-08T16:08:01.264Z,28.29
2019-06-08T16:11:05.745Z,28.32
2019-06-08T16:14:10.195Z,26.85
2019-06-08T16:17:14.635Z,28.52
2019-06-08T16:20:19.085Z,29.91
2019-06-08T16:23:23.528Z,29.14
2019-06-08T16:26:27.988Z,29.38
2019-06-08T16:29:33.324Z,29.31
2019-06-08T16:32:37.869Z,29.19
2019-06-08T16:35:42.327Z,28.53
2019-06-08T16:38:46.842Z,29.40
2019-06-08T16:41:51.287Z,29.81
2019-06-08T16:44:55.897Z,29.14
2019-06-08T16:48:00.347Z,29.46
2019-06-08T16:51:04.807Z,29.14
2019-06-08T16:54:09.505Z,30.65
2019-06-08T16:57:13.964Z,29.21
2019-06-08T17:00:30.814Z,29.52
2019-06-08T17:03:25.068Z,30.36
2019-06-08T17:06:29.519Z,30.00
2019-06-08T17:09:34.247Z,29.55
2019-06-08T17:12:39.182Z,31.25
2019-06-08T17:15:43.803Z,31.26
2019-06-08T17:18:48.311Z,31.83
2019-06-08T17:21:52.760Z,32.62
2019-06-08T17:24:57.204Z,33.49
2019-06-08T17:28:01.655Z,34.20
2019-06-08T17:31:06.120Z,33.80
2019-06-08T17:34:10.552Z,35.47
2019-06-08T17:37:15.003Z,36.53
2019-06-08T17:40:19.448Z,35.62
2019-06-08T17:43:24.296Z,35.18
2019-06-08T17:46:28.795Z,34.61
2019-06-08T17:49:34.450Z,34.69
2019-06-08T17:52:39.023Z,34.97
2019-06-08T17:55:43.997Z,34.64
2019-06-08T17:58:48.491Z,35.22
2019-06-08T18:01:52.946Z,36.70
2019-06-08T18:04:57.969Z,36.95
2019-06-08T18:08:02.636Z,37.31
2019-06-08T18:11:08.084Z,37.76
2019-06-08T18:14:12.711Z,36.52
2019-06-08T18:17:17.883Z,37.03
2019-06-08T18:20:22.717Z,37.95
2019-06-08T18:23:27.912Z,39.74
2019-06-08T18:26:34.149Z,41.10
2019-06-08T18:29:39.629Z,41.78
2019-06-08T18:32:46.352Z,44.92
2019-06-08T18:35:51.545Z,45.26
2019-06-08T18:38:58.025Z,47.52
2019-06-08T18:42:02.168Z,48.32
2019-06-08T18:45:07.663Z,47.47
2019-06-08T18:48:12.115Z,47.24
2019-06-08T18:51:17.537Z,49.20
2019-06-08T18:54:22.078Z,49.45
2019-06-08T18:57:27.494Z,49.91
2019-06-08T19:00:41.163Z,50.80
2019-06-08T19:03:47.152Z,51.45
2019-06-08T19:06:50.644Z,51.51
2019-06-08T19:09:57.852Z,51.65
2019-06-08T19:13:02.672Z,52.65
2019-06-08T19:16:07.599Z,52.71
2019-06-08T19:19:12.160Z,53.40
2019-06-08T19:22:19.010Z,53.62
2019-06-08T19:25:22.768Z,53.60
2019-06-08T19:28:35.767Z,54.24
2019-06-08T19:31:33.704Z,54.44
2019-06-08T19:34:40.671Z,54.90
2019-06-08T19:37:44.342Z,55.35
2019-06-08T19:40:48.791Z,54.76
2019-06-08T19:43:54.799Z,55.15
2019-06-08T19:46:59.486Z,55.54
2019-06-08T19:50:04.497Z,55.81
2019-06-08T19:53:08.929Z,55.63
2019-06-08T19:56:13.387Z,55.74
2019-06-08T19:59:18.419Z,55.09
2019-06-08T20:02:22.967Z,55.79
2019-06-08T20:05:28.520Z,55.87
2019-06-08T20:08:33.061Z,55.97
2019-06-08T20:11:43.259Z,55.70
2019-06-08T20:14:43.766Z,55.98
2019-06-08T20:17:50.302Z,56.82
2019-06-08T20:20:54.731Z,56.38
2019-06-08T20:23:59.179Z,57.55
2019-06-08T20:27:03.995Z,57.38
2019-06-08T20:30:12.210Z,57.57
2019-06-08T20:33:15.909Z,57.76
2019-06-08T20:36:20.379Z,57.47
2019-06-08T20:39:27.190Z,57.66
2019-06-08T20:42:31.076Z,57.78
2019-06-08T20:45:37.514Z,57.26
2019-06-08T20:48:42.171Z,57.58
2019-06-08T20:51:49.214Z,57.07
2019-06-08T20:54:53.551Z,57.82
2019-06-08T20:57:58.126Z,57.31
2019-06-08T21:01:02.581Z,57.75
2019-06-08T21:04:07.681Z,58.19
2019-06-08T21:07:12.225Z,59.09
2019-06-08T21:10:17.487Z,59.70
2019-06-08T21:13:22.015Z,59.34
2019-06-08T21:16:27.690Z,58.37
2019-06-08T21:19:32.226Z,58.48
2019-06-08T21:22:36.668Z,59.24
2019-06-08T21:25:41.116Z,59.88
2019-06-08T21:28:49.375Z,60.32
2019-06-08T21:31:53.392Z,60.55
2019-06-08T21:35:00.245Z,60.36
2019-06-08T21:38:19.210Z,60.64
2019-06-08T21:41:10.540Z,60.28
2019-06-08T21:44:14.977Z,60.57
2019-06-08T21:47:19.900Z,61.36
2019-06-08T21:50:24.357Z,60.75
2019-06-08T21:53:28.796Z,61.05
2019-06-08T21:56:33.244Z,61.65
2019-06-08T21:59:37.927Z,62.19
2019-06-08T22:02:42.434Z,61.74
2019-06-08T22:05:47.350Z,61.82
2019-06-08T22:08:51.984Z,61.59
2019-06-08T22:11:59.205Z,62.14
2019-06-08T22:15:03.147Z,61.92
2019-06-08T22:18:08.343Z,62.31
2019-06-08T22:21:12.951Z,62.93
2019-06-08T22:24:17.391Z,63.07
2019-06-08T22:27:21.846Z,63.08
2019-06-08T22:30:36.445Z,63.27
2019-06-08T22:33:33.217Z,64.23
2019-06-08T22:36:37.673Z,63.80
2019-06-08T22:39:42.113Z,63.55
2019-06-08T22:42:48.131Z,64.40
2019-06-08T22:45:54.316Z,63.73
2019-06-08T22:49:01.181Z,63.43
2019-06-08T22:52:07.962Z,63.85
2019-06-08T22:55:11.821Z,64.43
2019-06-08T22:58:19.008Z,64.12
2019-06-08T23:01:23.001Z,64.55
2019-06-08T23:04:27.814Z,65.00
2019-06-08T23:07:32.863Z,64.75
2019-06-08T23:10:37.589Z,64.36
2019-06-08T23:13:42.068Z,64.70
2019-06-08T23:16:47.187Z,64.04
2019-06-08T23:19:51.743Z,64.13
2019-06-08T23:22:58.325Z,64.06
2019-06-08T23:26:03.986Z,64.29
2019-06-08T23:29:09.697Z,64.77
2019-06-08T23:32:14.269Z,64.27
2019-06-08T23:35:18.721Z,65.05
2019-06-08T23:38:23.180Z,65.15
2019-06-08T23:41:27.639Z,65.25
2019-06-08T23:44:32.083Z,65.09
2019-06-08T23:47:38.371Z,65.24
2019-06-08T23:50:42.999Z,65.40
2019-06-08T23:53:47.885Z,65.66
2019-06-08T23:56:52.479Z,65.47
2019-06-08T23:59:59.358Z,65.12
